sensor_id;sensor_type;location;lat;lon;timestamp;temperature;humidity
14093;DHT22;7123;49.468;10.992;2024-01-07T00:00:08;4.60;99.90
14093;DHT22;7123;49.468;10.992;2024-01-07T00:02:35;4.60;99.90
14093;DHT22;7123;49.468;10.992;2024-01-07T00:05:03;4.60;99.90
14093;DHT22;7123;49.468;10.992;2024-01-07T00:07:30;4.70;99.90
14093;DHT22;7123;49.468;10.992;2024-01-07T00:09:57;4.70;99.90
14093;DHT22;7123;49.468;10.992;2024-01-07T00:12:23;4.70;99.90
14093;DHT22;7123;49.468;10.992;2024-01-07T00:14:51;4.70;99.90
14093;DHT22;7123;49.468;10.992;2024-01-07T00:17:18;4.70;99.90
14093;DHT22;7123;49.468;10.992;2024-01-07T00:19:45;4.80;99.90
14093;DHT22;7123;49.468;10.992;2024-01-07T00:22:12;4.70;99.90
14093;DHT22;7123;49.468;10.992;2024-01-07T00:24:39;4.60;99.90
14093;DHT22;7123;49.468;10.992;2024-01-07T00:27:06;4.60;99.90
14093;DHT22;7123;49.468;10.992;2024-01-07T00:29:35;4.60;99.90
14093;DHT22;7123;49.468;10.992;2024-01-07T00:32:02;4.70;99.90
14093;DHT22;7123;49.468;10.992;2024-01-07T00:34:29;4.70;99.90
14093;DHT22;7123;49.468;10.992;2024-01-07T00:36:56;4.70;99.90
14093;DHT22;7123;49.468;10.992;2024-01-07T00:39:23;4.70;99.90
14093;DHT22;7123;49.468;10.992;2024-01-07T00:41:49;4.70;99.90
14093;DHT22;7123;49.468;10.992;2024-01-07T00:44:16;4.80;99.90
14093;DHT22;7123;49.468;10.992;2024-01-07T00:46:43;4.80;99.90
14093;DHT22;7123;49.468;10.992;2024-01-07T00:49:14;4.80;99.90
14093;DHT22;7123;49.468;10.992;2024-01-07T00:51:41;4.80;99.90
14093;DHT22;7123;49.468;10.992;2024-01-07T00:54:09;4.80;99.90
14093;DHT22;7123;49.468;10.992;2024-01-07T00:56:36;4.80;99.90
14093;DHT22;7123;49.468;10.992;2024-01-07T00:59:03;4.80;99.90
14093;DHT22;7123;49.468;10.992;2024-01-07T01:01:29;4.80;99.90
14093;DHT22;7123;49.468;10.992;2024-01-07T01:03:56;4.80;99.90
14093;DHT22;7123;49.468;10.992;2024-01-07T01:06:25;4.80;99.90
14093;DHT22;7123;49.468;10.992;2024-01-07T01:08:51;4.80;99.90
14093;DHT22;7123;49.468;10.992;2024-01-07T01:11:18;4.80;99.90
14093;DHT22;7123;49.468;10.992;2024-01-07T01:13:45;4.70;99.90
14093;DHT22;7123;49.468;10.992;2024-01-07T01:16:12;4.70;99.90
14093;DHT22;7123;49.468;10.992;2024-01-07T01:18:38;4.70;99.90
14093;DHT22;7123;49.468;10.992;2024-01-07T01:21:05;4.70;99.90
14093;DHT22;7123;49.468;10.992;2024-01-07T01:23:32;4.70;99.90
14093;DHT22;7123;49.468;10.992;2024-01-07T01:25:59;4.70;99.90
14093;DHT22;7123;49.468;10.992;2024-01-07T01:28:25;4.70;99.90
14093;DHT22;7123;49.468;10.992;2024-01-07T01:30:52;4.70;99.90
14093;DHT22;7123;49.468;10.992;2024-01-07T01:33:19;4.70;99.90
14093;DHT22;7123;49.468;10.992;2024-01-07T01:35:46;4.70;99.90
14093;DHT22;7123;49.468;10.992;2024-01-07T01:38:13;4.70;99.90
14093;DHT22;7123;49.468;10.992;2024-01-07T01:40:40;4.70;99.90
14093;DHT22;7123;49.468;10.992;2024-01-07T01:43:06;4.60;99.90
14093;DHT22;7123;49.468;10.992;2024-01-07T01:45:34;4.60;99.90
14093;DHT22;7123;49.468;10.992;2024-01-07T01:48:01;4.70;99.90
14093;DHT22;7123;49.468;10.992;2024-01-07T01:50:28;4.70;99.90
14093;DHT22;7123;49.468;10.992;2024-01-07T01:52:54;4.70;99.90
14093;DHT22;7123;49.468;10.992;2024-01-07T01:55:23;4.70;99.90
14093;DHT22;7123;49.468;10.992;2024-01-07T01:57:50;4.70;99.90
14093;DHT22;7123;49.468;10.992;2024-01-07T02:00:18;4.70;99.90
14093;DHT22;7123;49.468;10.992;2024-01-07T02:02:45;4.70;99.90
14093;DHT22;7123;49.468;10.992;2024-01-07T02:05:12;4.80;99.90
14093;DHT22;7123;49.468;10.992;2024-01-07T02:07:40;4.70;99.90
14093;DHT22;7123;49.468;10.992;2024-01-07T02:10:07;4.60;99.90
14093;DHT22;7123;49.468;10.992;2024-01-07T02:12:35;4.60;99.90
14093;DHT22;7123;49.468;10.992;2024-01-07T02:15:02;4.60;99.90
14093;DHT22;7123;49.468;10.992;2024-01-07T02:17:28;4.60;99.90
14093;DHT22;7123;49.468;10.992;2024-01-07T02:19:55;4.60;99.90
14093;DHT22;7123;49.468;10.992;2024-01-07T02:22:22;4.60;99.90
14093;DHT22;7123;49.468;10.992;2024-01-07T02:24:49;4.60;99.90
14093;DHT22;7123;49.468;10.992;2024-01-07T02:27:16;4.70;99.90
14093;DHT22;7123;49.468;10.992;2024-01-07T02:29:42;4.80;99.90
14093;DHT22;7123;49.468;10.992;2024-01-07T02:32:09;4.80;99.90
14093;DHT22;7123;49.468;10.992;2024-01-07T02:34:36;4.90;99.90
14093;DHT22;7123;49.468;10.992;2024-01-07T02:37:03;4.90;99.90
14093;DHT22;7123;49.468;10.992;2024-01-07T02:39:30;4.90;99.90
14093;DHT22;7123;49.468;10.992;2024-01-07T02:41:56;4.90;99.90
14093;DHT22;7123;49.468;10.992;2024-01-07T02:44:23;4.90;99.90
14093;DHT22;7123;49.468;10.992;2024-01-07T02:46:50;4.90;99.90
14093;DHT22;7123;49.468;10.992;2024-01-07T02:49:17;5.00;99.90
14093;DHT22;7123;49.468;10.992;2024-01-07T02:51:44;5.00;99.90
14093;DHT22;7123;49.468;10.992;2024-01-07T02:54:15;5.00;99.90
14093;DHT22;7123;49.468;10.992;2024-01-07T02:56:42;5.00;99.90
14093;DHT22;7123;49.468;10.992;2024-01-07T02:59:09;4.90;99.90
14093;DHT22;7123;49.468;10.992;2024-01-07T03:01:36;4.90;99.90
14093;DHT22;7123;49.468;10.992;2024-01-07T03:04:09;5.00;99.90
14093;DHT22;7123;49.468;10.992;2024-01-07T03:06:36;5.00;99.90
14093;DHT22;7123;49.468;10.992;2024-01-07T03:09:03;5.00;99.90
14093;DHT22;7123;49.468;10.992;2024-01-07T03:11:29;5.00;99.90
14093;DHT22;7123;49.468;10.992;2024-01-07T03:13:56;5.00;99.90
14093;DHT22;7123;49.468;10.992;2024-01-07T03:16:24;5.00;99.90
14093;DHT22;7123;49.468;10.992;2024-01-07T03:18:52;5.00;99.90
14093;DHT22;7123;49.468;10.992;2024-01-07T03:21:23;5.00;99.90
14093;DHT22;7123;49.468;10.992;2024-01-07T03:23:50;5.00;99.90
14093;DHT22;7123;49.468;10.992;2024-01-07T03:26:18;5.00;99.90
14093;DHT22;7123;49.468;10.992;2024-01-07T03:28:45;5.00;99.90
14093;DHT22;7123;49.468;10.992;2024-01-07T03:31:14;5.00;99.90
14093;DHT22;7123;49.468;10.992;2024-01-07T03:33:42;5.10;99.90
14093;DHT22;7123;49.468;10.992;2024-01-07T03:36:11;5.10;99.90
14093;DHT22;7123;49.468;10.992;2024-01-07T03:38:39;5.10;99.90
14093;DHT22;7123;49.468;10.992;2024-01-07T03:41:06;5.10;99.90
14093;DHT22;7123;49.468;10.992;2024-01-07T03:43:33;5.10;99.90
14093;DHT22;7123;49.468;10.992;2024-01-07T03:46:00;5.00;99.90
14093;DHT22;7123;49.468;10.992;2024-01-07T03:48:27;5.00;99.90
14093;DHT22;7123;49.468;10.992;2024-01-07T03:50:54;4.90;99.90
14093;DHT22;7123;49.468;10.992;2024-01-07T03:53:20;5.00;99.90
14093;DHT22;7123;49.468;10.992;2024-01-07T03:55:47;5.10;99.90
14093;DHT22;7123;49.468;10.992;2024-01-07T03:58:14;4.90;99.90
14093;DHT22;7123;49.468;10.992;2024-01-07T04:00:41;4.80;99.90
14093;DHT22;7123;49.468;10.992;2024-01-07T04:03:08;4.80;99.90
14093;DHT22;7123;49.468;10.992;2024-01-07T04:05:34;4.80;99.90
14093;DHT22;7123;49.468;10.992;2024-01-07T04:08:01;4.80;99.90
14093;DHT22;7123;49.468;10.992;2024-01-07T04:10:28;4.80;99.90
14093;DHT22;7123;49.468;10.992;2024-01-07T04:12:55;4.80;99.90
14093;DHT22;7123;49.468;10.992;2024-01-07T04:15:23;4.80;99.90
14093;DHT22;7123;49.468;10.992;2024-01-07T04:17:50;4.80;99.90
14093;DHT22;7123;49.468;10.992;2024-01-07T04:20:17;4.80;99.90
14093;DHT22;7123;49.468;10.992;2024-01-07T04:22:44;4.80;99.90
14093;DHT22;7123;49.468;10.992;2024-01-07T04:25:10;4.80;99.90
14093;DHT22;7123;49.468;10.992;2024-01-07T04:27:38;4.80;99.90
14093;DHT22;7123;49.468;10.992;2024-01-07T04:30:06;4.80;99.90
14093;DHT22;7123;49.468;10.992;2024-01-07T04:32:33;4.80;99.90
14093;DHT22;7123;49.468;10.992;2024-01-07T04:35:00;4.80;99.90
14093;DHT22;7123;49.468;10.992;2024-01-07T04:37:27;4.70;99.90
14093;DHT22;7123;49.468;10.992;2024-01-07T04:39:54;4.70;99.90
14093;DHT22;7123;49.468;10.992;2024-01-07T04:42:21;4.70;99.90
14093;DHT22;7123;49.468;10.992;2024-01-07T04:44:47;4.70;99.90
14093;DHT22;7123;49.468;10.992;2024-01-07T04:47:31;4.70;99.90
14093;DHT22;7123;49.468;10.992;2024-01-07T04:49:58;4.70;99.90
14093;DHT22;7123;49.468;10.992;2024-01-07T04:52:25;4.70;99.90
14093;DHT22;7123;49.468;10.992;2024-01-07T04:54:53;4.70;99.90
14093;DHT22;7123;49.468;10.992;2024-01-07T04:57:21;4.70;99.90
14093;DHT22;7123;49.468;10.992;2024-01-07T04:59:49;4.70;99.90
14093;DHT22;7123;49.468;10.992;2024-01-07T05:02:16;4.90;99.90
14093;DHT22;7123;49.468;10.992;2024-01-07T05:04:43;4.70;99.90
14093;DHT22;7123;49.468;10.992;2024-01-07T05:07:10;4.70;99.90
14093;DHT22;7123;49.468;10.992;2024-01-07T05:09:37;4.60;99.90
14093;DHT22;7123;49.468;10.992;2024-01-07T05:12:04;4.60;99.90
14093;DHT22;7123;49.468;10.992;2024-01-07T05:14:31;4.60;99.90
14093;DHT22;7123;49.468;10.992;2024-01-07T05:16:58;4.60;99.90
14093;DHT22;7123;49.468;10.992;2024-01-07T05:19:24;4.60;99.90
14093;DHT22;7123;49.468;10.992;2024-01-07T05:21:52;4.60;99.90
14093;DHT22;7123;49.468;10.992;2024-01-07T05:24:19;4.60;99.90
14093;DHT22;7123;49.468;10.992;2024-01-07T05:26:46;4.60;99.90
14093;DHT22;7123;49.468;10.992;2024-01-07T05:29:13;4.60;99.90
14093;DHT22;7123;49.468;10.992;2024-01-07T05:31:40;4.50;99.90
14093;DHT22;7123;49.468;10.992;2024-01-07T05:34:07;4.50;99.90
14093;DHT22;7123;49.468;10.992;2024-01-07T05:36:34;4.50;99.90
14093;DHT22;7123;49.468;10.992;2024-01-07T05:39:02;4.50;99.90
14093;DHT22;7123;49.468;10.992;2024-01-07T05:41:29;4.50;99.90
14093;DHT22;7123;49.468;10.992;2024-01-07T05:43:56;4.50;99.90
14093;DHT22;7123;49.468;10.992;2024-01-07T05:46:23;4.50;99.90
14093;DHT22;7123;49.468;10.992;2024-01-07T05:48:49;4.70;99.90
14093;DHT22;7123;49.468;10.992;2024-01-07T05:51:17;4.50;99.90
14093;DHT22;7123;49.468;10.992;2024-01-07T05:53:45;4.40;99.90
14093;DHT22;7123;49.468;10.992;2024-01-07T05:56:12;4.40;99.90
14093;DHT22;7123;49.468;10.992;2024-01-07T05:58:39;4.40;99.90
14093;DHT22;7123;49.468;10.992;2024-01-07T06:01:07;4.30;99.90
14093;DHT22;7123;49.468;10.992;2024-01-07T06:03:35;4.30;99.90
14093;DHT22;7123;49.468;10.992;2024-01-07T06:06:02;4.30;99.90
14093;DHT22;7123;49.468;10.992;2024-01-07T06:08:29;4.20;99.90
14093;DHT22;7123;49.468;10.992;2024-01-07T06:10:56;4.30;99.90
14093;DHT22;7123;49.468;10.992;2024-01-07T06:13:23;4.40;99.90
14093;DHT22;7123;49.468;10.992;2024-01-07T06:15:50;4.20;99.90
14093;DHT22;7123;49.468;10.992;2024-01-07T06:18:17;4.20;99.90
14093;DHT22;7123;49.468;10.992;2024-01-07T06:20:44;4.20;99.90
14093;DHT22;7123;49.468;10.992;2024-01-07T06:23:11;4.20;99.90
14093;DHT22;7123;49.468;10.992;2024-01-07T06:25:38;4.20;99.90
14093;DHT22;7123;49.468;10.992;2024-01-07T06:28:06;4.10;99.90
14093;DHT22;7123;49.468;10.992;2024-01-07T06:30:33;4.00;99.90
14093;DHT22;7123;49.468;10.992;2024-01-07T06:33:00;4.10;99.90
14093;DHT22;7123;49.468;10.992;2024-01-07T06:35:27;4.00;99.90
14093;DHT22;7123;49.468;10.992;2024-01-07T06:37:54;4.00;99.90
14093;DHT22;7123;49.468;10.992;2024-01-07T06:40:21;4.00;99.90
14093;DHT22;7123;49.468;10.992;2024-01-07T06:42:49;4.10;99.90
14093;DHT22;7123;49.468;10.992;2024-01-07T06:45:16;4.00;99.90
14093;DHT22;7123;49.468;10.992;2024-01-07T06:47:43;3.90;99.90
14093;DHT22;7123;49.468;10.992;2024-01-07T06:50:10;4.00;99.90
14093;DHT22;7123;49.468;10.992;2024-01-07T06:52:37;4.00;99.90
14093;DHT22;7123;49.468;10.992;2024-01-07T06:55:04;4.00;99.90
14093;DHT22;7123;49.468;10.992;2024-01-07T06:57:31;4.00;99.90
14093;DHT22;7123;49.468;10.992;2024-01-07T06:59:58;4.00;99.90
14093;DHT22;7123;49.468;10.992;2024-01-07T07:02:25;3.90;99.90
14093;DHT22;7123;49.468;10.992;2024-01-07T07:04:52;4.00;99.90
14093;DHT22;7123;49.468;10.992;2024-01-07T07:07:19;3.90;99.90
14093;DHT22;7123;49.468;10.992;2024-01-07T07:09:46;3.90;99.90
14093;DHT22;7123;49.468;10.992;2024-01-07T07:12:13;4.10;99.90
14093;DHT22;7123;49.468;10.992;2024-01-07T07:14:40;3.90;99.90
14093;DHT22;7123;49.468;10.992;2024-01-07T07:17:06;3.90;99.90
14093;DHT22;7123;49.468;10.992;2024-01-07T07:19:34;3.90;99.90
14093;DHT22;7123;49.468;10.992;2024-01-07T07:22:01;3.90;99.90
14093;DHT22;7123;49.468;10.992;2024-01-07T07:24:27;3.90;99.90
14093;DHT22;7123;49.468;10.992;2024-01-07T07:26:54;3.90;99.90
14093;DHT22;7123;49.468;10.992;2024-01-07T07:29:21;3.90;99.90
14093;DHT22;7123;49.468;10.992;2024-01-07T07:31:48;4.00;99.90
14093;DHT22;7123;49.468;10.992;2024-01-07T07:34:15;4.00;99.90
14093;DHT22;7123;49.468;10.992;2024-01-07T07:36:42;4.00;99.90
14093;DHT22;7123;49.468;10.992;2024-01-07T07:39:11;4.00;99.90
14093;DHT22;7123;49.468;10.992;2024-01-07T07:41:40;4.00;99.90
14093;DHT22;7123;49.468;10.992;2024-01-07T07:44:06;4.00;99.90
14093;DHT22;7123;49.468;10.992;2024-01-07T07:46:33;4.00;99.90
14093;DHT22;7123;49.468;10.992;2024-01-07T07:49:00;4.00;99.90
14093;DHT22;7123;49.468;10.992;2024-01-07T07:51:28;3.90;99.90
14093;DHT22;7123;49.468;10.992;2024-01-07T07:53:55;3.90;99.90
14093;DHT22;7123;49.468;10.992;2024-01-07T07:56:22;4.00;99.90
14093;DHT22;7123;49.468;10.992;2024-01-07T07:58:48;3.80;99.90
14093;DHT22;7123;49.468;10.992;2024-01-07T08:01:16;3.80;99.90
14093;DHT22;7123;49.468;10.992;2024-01-07T08:03:43;3.70;99.90
14093;DHT22;7123;49.468;10.992;2024-01-07T08:06:10;3.60;99.90
14093;DHT22;7123;49.468;10.992;2024-01-07T08:08:38;3.80;99.90
14093;DHT22;7123;49.468;10.992;2024-01-07T08:11:05;3.80;99.90
14093;DHT22;7123;49.468;10.992;2024-01-07T08:13:37;3.50;99.90
14093;DHT22;7123;49.468;10.992;2024-01-07T08:16:05;3.60;99.90
14093;DHT22;7123;49.468;10.992;2024-01-07T08:18:32;3.50;99.90
14093;DHT22;7123;49.468;10.992;2024-01-07T08:20:59;3.50;99.90
14093;DHT22;7123;49.468;10.992;2024-01-07T08:23:27;3.60;99.90
14093;DHT22;7123;49.468;10.992;2024-01-07T08:25:54;3.50;99.90
14093;DHT22;7123;49.468;10.992;2024-01-07T08:28:20;3.60;99.90
14093;DHT22;7123;49.468;10.992;2024-01-07T08:30:48;3.40;99.90
14093;DHT22;7123;49.468;10.992;2024-01-07T08:33:16;3.40;99.90
14093;DHT22;7123;49.468;10.992;2024-01-07T08:35:43;3.40;99.90
14093;DHT22;7123;49.468;10.992;2024-01-07T08:38:10;3.50;99.90
14093;DHT22;7123;49.468;10.992;2024-01-07T08:40:37;3.40;99.90
14093;DHT22;7123;49.468;10.992;2024-01-07T08:43:03;3.30;99.90
14093;DHT22;7123;49.468;10.992;2024-01-07T08:45:30;3.20;99.90
14093;DHT22;7123;49.468;10.992;2024-01-07T08:47:57;3.20;99.90
14093;DHT22;7123;49.468;10.992;2024-01-07T08:50:24;3.20;99.90
14093;DHT22;7123;49.468;10.992;2024-01-07T08:52:51;3.30;99.90
14093;DHT22;7123;49.468;10.992;2024-01-07T08:55:18;3.30;99.90
14093;DHT22;7123;49.468;10.992;2024-01-07T08:57:45;3.30;99.90
14093;DHT22;7123;49.468;10.992;2024-01-07T09:00:15;3.40;99.90
14093;DHT22;7123;49.468;10.992;2024-01-07T09:02:42;3.30;99.90
14093;DHT22;7123;49.468;10.992;2024-01-07T09:05:10;3.30;99.90
14093;DHT22;7123;49.468;10.992;2024-01-07T09:07:38;3.20;99.90
14093;DHT22;7123;49.468;10.992;2024-01-07T09:10:05;3.10;99.90
14093;DHT22;7123;49.468;10.992;2024-01-07T09:12:37;3.10;99.90
14093;DHT22;7123;49.468;10.992;2024-01-07T09:15:05;3.10;99.90
14093;DHT22;7123;49.468;10.992;2024-01-07T09:17:37;3.10;99.90
14093;DHT22;7123;49.468;10.992;2024-01-07T09:20:05;3.10;99.90
14093;DHT22;7123;49.468;10.992;2024-01-07T09:22:34;3.10;99.90
14093;DHT22;7123;49.468;10.992;2024-01-07T09:25:03;3.10;99.90
14093;DHT22;7123;49.468;10.992;2024-01-07T09:27:30;3.10;99.90
14093;DHT22;7123;49.468;10.992;2024-01-07T09:29:57;3.10;99.90
14093;DHT22;7123;49.468;10.992;2024-01-07T09:32:24;3.10;99.90
14093;DHT22;7123;49.468;10.992;2024-01-07T09:34:51;3.10;99.90
14093;DHT22;7123;49.468;10.992;2024-01-07T09:37:19;3.00;99.90
14093;DHT22;7123;49.468;10.992;2024-01-07T09:39:46;3.10;99.90
14093;DHT22;7123;49.468;10.992;2024-01-07T09:42:17;3.00;99.90
14093;DHT22;7123;49.468;10.992;2024-01-07T09:44:44;3.00;99.90
14093;DHT22;7123;49.468;10.992;2024-01-07T09:47:13;3.00;99.90
14093;DHT22;7123;49.468;10.992;2024-01-07T09:49:41;3.00;99.90
14093;DHT22;7123;49.468;10.992;2024-01-07T09:52:09;3.10;99.90
14093;DHT22;7123;49.468;10.992;2024-01-07T09:54:38;3.00;99.90
14093;DHT22;7123;49.468;10.992;2024-01-07T09:57:06;3.00;99.90
14093;DHT22;7123;49.468;10.992;2024-01-07T09:59:34;3.00;99.90
14093;DHT22;7123;49.468;10.992;2024-01-07T10:02:01;2.90;99.90
14093;DHT22;7123;49.468;10.992;2024-01-07T10:04:29;2.90;99.90
14093;DHT22;7123;49.468;10.992;2024-01-07T10:06:57;3.00;99.90
14093;DHT22;7123;49.468;10.992;2024-01-07T10:09:29;2.90;99.90
14093;DHT22;7123;49.468;10.992;2024-01-07T10:11:56;3.00;99.90
14093;DHT22;7123;49.468;10.992;2024-01-07T10:14:22;3.00;99.90
14093;DHT22;7123;49.468;10.992;2024-01-07T10:16:53;2.90;99.90
14093;DHT22;7123;49.468;10.992;2024-01-07T10:19:24;2.90;99.90
14093;DHT22;7123;49.468;10.992;2024-01-07T10:22:01;2.80;99.90
14093;DHT22;7123;49.468;10.992;2024-01-07T10:24:39;2.80;99.90
14093;DHT22;7123;49.468;10.992;2024-01-07T10:27:08;2.80;99.90
14093;DHT22;7123;49.468;10.992;2024-01-07T10:29:34;2.80;99.90
14093;DHT22;7123;49.468;10.992;2024-01-07T10:32:02;2.90;99.90
14093;DHT22;7123;49.468;10.992;2024-01-07T10:34:31;2.90;99.90
14093;DHT22;7123;49.468;10.992;2024-01-07T10:37:00;2.90;99.90
14093;DHT22;7123;49.468;10.992;2024-01-07T10:39:27;2.90;99.90
14093;DHT22;7123;49.468;10.992;2024-01-07T10:41:57;2.90;99.90
14093;DHT22;7123;49.468;10.992;2024-01-07T10:44:30;2.90;99.90
14093;DHT22;7123;49.468;10.992;2024-01-07T10:46:57;2.80;99.90
14093;DHT22;7123;49.468;10.992;2024-01-07T10:49:26;2.80;99.90
14093;DHT22;7123;49.468;10.992;2024-01-07T10:52:04;2.80;99.90
14093;DHT22;7123;49.468;10.992;2024-01-07T10:54:32;2.80;99.90
14093;DHT22;7123;49.468;10.992;2024-01-07T10:59:35;2.80;99.90
14093;DHT22;7123;49.468;10.992;2024-01-07T11:02:03;2.80;99.90
14093;DHT22;7123;49.468;10.992;2024-01-07T11:05:00;2.80;99.90
14093;DHT22;7123;49.468;10.992;2024-01-07T11:07:43;2.80;99.90
14093;DHT22;7123;49.468;10.992;2024-01-07T11:12:53;2.80;99.90
14093;DHT22;7123;49.468;10.992;2024-01-07T11:18:23;2.80;99.90
14093;DHT22;7123;49.468;10.992;2024-01-07T11:20:50;2.80;99.90
14093;DHT22;7123;49.468;10.992;2024-01-07T11:23:30;2.80;99.90
14093;DHT22;7123;49.468;10.992;2024-01-07T11:26:03;2.70;99.90
14093;DHT22;7123;49.468;10.992;2024-01-07T11:34:01;2.70;99.90
14093;DHT22;7123;49.468;10.992;2024-01-07T11:36:29;2.70;99.90
14093;DHT22;7123;49.468;10.992;2024-01-07T11:38:56;2.60;99.90
14093;DHT22;7123;49.468;10.992;2024-01-07T11:41:24;2.60;99.90
14093;DHT22;7123;49.468;10.992;2024-01-07T11:46:21;2.60;99.90
14093;DHT22;7123;49.468;10.992;2024-01-07T11:48:50;2.50;99.90
14093;DHT22;7123;49.468;10.992;2024-01-07T11:51:17;2.50;99.90
14093;DHT22;7123;49.468;10.992;2024-01-07T11:53:46;2.40;99.90
14093;DHT22;7123;49.468;10.992;2024-01-07T11:56:14;2.50;99.90
14093;DHT22;7123;49.468;10.992;2024-01-07T11:58:41;2.50;99.90
14093;DHT22;7123;49.468;10.992;2024-01-07T12:01:08;2.60;99.90
14093;DHT22;7123;49.468;10.992;2024-01-07T12:03:35;2.70;99.90
14093;DHT22;7123;49.468;10.992;2024-01-07T12:06:03;2.70;99.90
14093;DHT22;7123;49.468;10.992;2024-01-07T12:08:31;2.70;99.90
14093;DHT22;7123;49.468;10.992;2024-01-07T12:10:59;2.70;99.90
14093;DHT22;7123;49.468;10.992;2024-01-07T12:13:26;2.60;99.90
14093;DHT22;7123;49.468;10.992;2024-01-07T12:15:53;2.50;99.90
14093;DHT22;7123;49.468;10.992;2024-01-07T12:18:21;2.50;99.90
14093;DHT22;7123;49.468;10.992;2024-01-07T12:20:57;2.50;99.90
14093;DHT22;7123;49.468;10.992;2024-01-07T12:23:25;2.50;99.90
14093;DHT22;7123;49.468;10.992;2024-01-07T12:25:53;2.60;99.90
14093;DHT22;7123;49.468;10.992;2024-01-07T12:28:20;2.50;99.90
14093;DHT22;7123;49.468;10.992;2024-01-07T12:30:48;2.40;99.90
14093;DHT22;7123;49.468;10.992;2024-01-07T12:33:21;2.40;99.90
14093;DHT22;7123;49.468;10.992;2024-01-07T12:35:49;2.40;99.90
14093;DHT22;7123;49.468;10.992;2024-01-07T12:38:15;2.40;99.90
14093;DHT22;7123;49.468;10.992;2024-01-07T12:40:42;2.40;99.90
14093;DHT22;7123;49.468;10.992;2024-01-07T12:43:09;2.30;99.90
14093;DHT22;7123;49.468;10.992;2024-01-07T12:45:36;2.30;99.90
14093;DHT22;7123;49.468;10.992;2024-01-07T12:48:03;2.30;99.90
14093;DHT22;7123;49.468;10.992;2024-01-07T12:50:30;2.20;99.90
14093;DHT22;7123;49.468;10.992;2024-01-07T12:52:58;2.20;99.90
14093;DHT22;7123;49.468;10.992;2024-01-07T12:55:25;2.30;99.90
14093;DHT22;7123;49.468;10.992;2024-01-07T12:57:56;2.20;99.90
14093;DHT22;7123;49.468;10.992;2024-01-07T13:00:23;2.20;99.90
14093;DHT22;7123;49.468;10.992;2024-01-07T13:02:50;2.20;99.90
14093;DHT22;7123;49.468;10.992;2024-01-07T13:05:17;2.30;99.90
14093;DHT22;7123;49.468;10.992;2024-01-07T13:07:46;2.30;99.90
14093;DHT22;7123;49.468;10.992;2024-01-07T13:10:13;2.30;99.90
14093;DHT22;7123;49.468;10.992;2024-01-07T13:12:40;2.30;99.90
14093;DHT22;7123;49.468;10.992;2024-01-07T13:15:16;2.30;99.90
14093;DHT22;7123;49.468;10.992;2024-01-07T13:17:44;2.40;99.90
14093;DHT22;7123;49.468;10.992;2024-01-07T13:20:11;2.40;99.90
14093;DHT22;7123;49.468;10.992;2024-01-07T13:22:38;2.40;99.90
14093;DHT22;7123;49.468;10.992;2024-01-07T13:25:06;2.50;99.90
14093;DHT22;7123;49.468;10.992;2024-01-07T13:27:33;2.30;99.90
14093;DHT22;7123;49.468;10.992;2024-01-07T13:30:04;2.40;99.90
14093;DHT22;7123;49.468;10.992;2024-01-07T13:32:31;2.40;99.90
14093;DHT22;7123;49.468;10.992;2024-01-07T13:35:04;2.70;99.90
14093;DHT22;7123;49.468;10.992;2024-01-07T13:37:31;2.40;99.90
14093;DHT22;7123;49.468;10.992;2024-01-07T13:39:57;2.40;99.90
14093;DHT22;7123;49.468;10.992;2024-01-07T13:42:24;2.30;99.90
14093;DHT22;7123;49.468;10.992;2024-01-07T13:44:51;2.30;99.90
14093;DHT22;7123;49.468;10.992;2024-01-07T13:47:18;2.20;99.90
14093;DHT22;7123;49.468;10.992;2024-01-07T13:49:45;2.20;99.90
14093;DHT22;7123;49.468;10.992;2024-01-07T13:52:12;2.20;99.90
14093;DHT22;7123;49.468;10.992;2024-01-07T13:54:41;2.20;99.90
14093;DHT22;7123;49.468;10.992;2024-01-07T13:57:08;2.20;99.90
14093;DHT22;7123;49.468;10.992;2024-01-07T13:59:35;2.20;99.90
14093;DHT22;7123;49.468;10.992;2024-01-07T14:02:02;2.20;99.90
14093;DHT22;7123;49.468;10.992;2024-01-07T14:04:31;2.10;99.90
14093;DHT22;7123;49.468;10.992;2024-01-07T14:06:58;2.20;99.90
14093;DHT22;7123;49.468;10.992;2024-01-07T14:09:25;2.20;99.90
14093;DHT22;7123;49.468;10.992;2024-01-07T14:11:52;2.20;99.90
14093;DHT22;7123;49.468;10.992;2024-01-07T14:14:19;2.20;99.90
14093;DHT22;7123;49.468;10.992;2024-01-07T14:16:46;2.20;99.90
14093;DHT22;7123;49.468;10.992;2024-01-07T14:19:13;2.10;99.90
14093;DHT22;7123;49.468;10.992;2024-01-07T14:21:41;2.10;99.90
14093;DHT22;7123;49.468;10.992;2024-01-07T14:24:08;2.20;99.90
14093;DHT22;7123;49.468;10.992;2024-01-07T14:26:35;2.20;99.90
14093;DHT22;7123;49.468;10.992;2024-01-07T14:29:02;2.20;99.90
14093;DHT22;7123;49.468;10.992;2024-01-07T14:31:42;2.20;99.90
14093;DHT22;7123;49.468;10.992;2024-01-07T14:34:09;2.20;99.90
14093;DHT22;7123;49.468;10.992;2024-01-07T14:36:40;2.10;99.90
14093;DHT22;7123;49.468;10.992;2024-01-07T14:39:10;2.10;99.90
14093;DHT22;7123;49.468;10.992;2024-01-07T14:41:39;2.10;99.90
14093;DHT22;7123;49.468;10.992;2024-01-07T14:44:06;2.10;99.90
14093;DHT22;7123;49.468;10.992;2024-01-07T14:46:37;2.10;99.90
14093;DHT22;7123;49.468;10.992;2024-01-07T14:49:04;2.10;99.90
14093;DHT22;7123;49.468;10.992;2024-01-07T14:51:31;2.10;99.90
14093;DHT22;7123;49.468;10.992;2024-01-07T14:53:59;2.20;99.90
14093;DHT22;7123;49.468;10.992;2024-01-07T14:56:27;2.10;99.90
14093;DHT22;7123;49.468;10.992;2024-01-07T14:58:54;2.10;99.90
14093;DHT22;7123;49.468;10.992;2024-01-07T15:01:20;2.10;99.90
14093;DHT22;7123;49.468;10.992;2024-01-07T15:03:48;2.00;99.90
14093;DHT22;7123;49.468;10.992;2024-01-07T15:06:14;2.00;99.90
14093;DHT22;7123;49.468;10.992;2024-01-07T15:08:42;2.00;99.90
14093;DHT22;7123;49.468;10.992;2024-01-07T15:11:11;2.00;99.90
14093;DHT22;7123;49.468;10.992;2024-01-07T15:13:38;2.00;99.90
14093;DHT22;7123;49.468;10.992;2024-01-07T15:16:06;2.00;99.90
14093;DHT22;7123;49.468;10.992;2024-01-07T15:18:34;2.00;99.90
14093;DHT22;7123;49.468;10.992;2024-01-07T15:21:05;1.90;99.90
14093;DHT22;7123;49.468;10.992;2024-01-07T15:23:32;1.90;99.90
14093;DHT22;7123;49.468;10.992;2024-01-07T15:25:59;1.80;99.90
14093;DHT22;7123;49.468;10.992;2024-01-07T15:28:26;1.80;99.90
14093;DHT22;7123;49.468;10.992;2024-01-07T15:30:53;1.80;99.90
14093;DHT22;7123;49.468;10.992;2024-01-07T15:33:20;1.90;99.90
14093;DHT22;7123;49.468;10.992;2024-01-07T15:35:47;1.90;99.90
14093;DHT22;7123;49.468;10.992;2024-01-07T15:38:14;2.00;99.90
14093;DHT22;7123;49.468;10.992;2024-01-07T15:40:41;2.00;99.90
14093;DHT22;7123;49.468;10.992;2024-01-07T15:43:08;2.00;99.90
14093;DHT22;7123;49.468;10.992;2024-01-07T15:45:38;2.00;99.90
14093;DHT22;7123;49.468;10.992;2024-01-07T15:48:05;2.20;99.90
14093;DHT22;7123;49.468;10.992;2024-01-07T15:50:32;1.90;99.90
14093;DHT22;7123;49.468;10.992;2024-01-07T15:52:59;1.90;99.90
14093;DHT22;7123;49.468;10.992;2024-01-07T15:55:28;1.90;99.90
14093;DHT22;7123;49.468;10.992;2024-01-07T15:57:55;1.90;99.90
14093;DHT22;7123;49.468;10.992;2024-01-07T16:00:21;1.90;99.90
14093;DHT22;7123;49.468;10.992;2024-01-07T16:02:48;1.90;99.90